Time,TemperatureF,DewpointF,PressureIn,WindDirection,WindDirectionDegrees,WindSpeedMPH,WindSpeedGustMPH,Humidity,HourlyPrecipIn,Conditions,Clouds,dailyrainin,SoftwareType,DateUTC
2013-09-07 00:14:00,49.0,46.0,30.07,North,0,0.0,0.0,90,0.00,,,0.00,,2013-09-07 04:14:00,
2013-09-07 00:24:00,49.0,46.0,30.06,North,0,0.0,0.0,90,0.00,,,0.00,,2013-09-07 04:24:00,
2013-09-07 00:43:00,48.0,45.0,30.06,North,0,0.0,0.0,90,0.00,,,0.00,,2013-09-07 04:43:00,
2013-09-07 00:54:00,48.0,45.0,30.06,North,0,0.0,0.0,90,0.00,,,0.00,,2013-09-07 04:54:00,
2013-09-07 01:03:00,48.0,45.0,30.06,North,0,0.0,0.0,90,0.00,,,0.00,,2013-09-07 05:03:00,
2013-09-07 01:13:00,48.0,45.0,30.06,North,0,0.0,0.0,90,0.00,,,0.00,,2013-09-07 05:13:00,
2013-09-07 01:23:00,47.0,45.0,30.06,North,0,0.0,0.0,91,0.00,,,0.00,,2013-09-07 05:23:00,
2013-09-07 01:52:00,47.0,45.0,30.06,North,0,0.0,0.0,91,0.00,,,0.00,,2013-09-07 05:52:00,
2013-09-07 02:13:00,47.0,45.0,30.05,North,0,0.0,0.0,91,0.00,,,0.00,,2013-09-07 06:13:00,
2013-09-07 02:22:00,47.0,45.0,30.05,North,0,0.0,0.0,91,0.00,,,0.00,,2013-09-07 06:22:00,
2013-09-07 02:33:00,47.0,45.0,30.05,North,0,0.0,0.0,91,0.00,,,0.00,,2013-09-07 06:33:00,
2013-09-07 02:42:00,47.0,45.0,30.05,North,0,0.0,0.0,91,0.00,,,0.00,,2013-09-07 06:42:00,
2013-09-07 02:52:00,46.0,44.0,30.04,North,0,0.0,0.0,91,0.00,,,0.00,,2013-09-07 06:52:00,
2013-09-07 03:12:00,46.0,44.0,30.04,North,0,0.0,0.0,91,0.00,,,0.00,,2013-09-07 07:12:00,
2013-09-07 03:22:00,46.0,44.0,30.04,North,0,0.0,0.0,91,0.00,,,0.00,,2013-09-07 07:22:00,
2013-09-07 03:33:00,46.0,44.0,30.04,North,0,0.0,0.0,91,0.00,,,0.00,,2013-09-07 07:33:00,
2013-09-07 03:42:00,46.0,44.0,30.04,North,0,0.0,0.0,91,0.00,,,0.00,,2013-09-07 07:42:00,
2013-09-07 03:52:00,46.0,44.0,30.04,North,0,0.0,0.0,91,0.00,,,0.00,,2013-09-07 07:52:00,
2013-09-07 04:12:00,46.0,44.0,30.04,North,0,0.0,0.0,91,0.00,,,0.00,,2013-09-07 08:12:00,
2013-09-07 04:22:00,46.0,44.0,30.04,North,0,0.0,0.0,91,0.00,,,0.00,,2013-09-07 08:22:00,
2013-09-07 04:53:00,45.0,43.0,30.04,North,0,0.0,0.0,91,0.00,,,0.00,,2013-09-07 08:53:00,
2013-09-07 05:12:00,45.0,43.0,30.04,North,0,0.0,0.0,92,0.00,,,0.00,,2013-09-07 09:12:00,
2013-09-07 05:21:00,45.0,43.0,30.04,North,0,0.0,0.0,92,0.00,,,0.00,,2013-09-07 09:21:00,
2013-09-07 05:42:00,45.0,43.0,30.03,North,0,0.0,0.0,91,0.00,,,0.00,,2013-09-07 09:42:00,
2013-09-07 05:52:00,44.0,42.0,30.02,North,0,0.0,0.0,92,0.00,,,0.00,,2013-09-07 09:52:00,
2013-09-07 06:11:00,45.0,43.0,30.03,North,0,0.0,0.0,92,0.00,,,0.00,,2013-09-07 10:11:00,
2013-09-07 06:21:00,44.0,42.0,30.03,North,0,0.0,0.0,92,0.00,,,0.00,,2013-09-07 10:21:00,
2013-09-07 06:41:00,44.0,42.0,30.03,North,0,0.0,0.0,92,0.00,,,0.00,,2013-09-07 10:41:00,
2013-09-07 06:51:00,44.0,42.0,30.04,North,0,0.0,0.0,92,0.00,,,0.00,,2013-09-07 10:51:00,
2013-09-07 07:13:00,44.0,42.0,30.04,North,0,0.0,0.0,92,0.00,,,0.00,,2013-09-07 11:13:00,
2013-09-07 07:23:00,44.0,42.0,30.04,North,0,0.0,0.0,92,0.00,,,0.00,,2013-09-07 11:23:00,
2013-09-07 07:43:00,45.0,43.0,30.04,North,0,0.0,0.0,92,0.00,,,0.00,,2013-09-07 11:43:00,
2013-09-07 07:52:00,45.0,43.0,30.04,North,0,0.0,0.0,92,0.00,,,0.00,,2013-09-07 11:52:00,
2013-09-07 08:12:00,46.0,44.0,30.03,NW,305,0.0,1.0,92,0.00,,,0.00,,2013-09-07 12:12:00,
2013-09-07 08:22:00,47.0,45.0,30.03,North,0,0.0,0.0,92,0.00,,,0.00,,2013-09-07 12:22:00,
2013-09-07 08:42:00,49.0,47.0,30.02,NW,305,0.0,1.0,93,0.00,,,0.00,,2013-09-07 12:42:00,
2013-09-07 08:52:00,51.0,49.0,30.02,SW,233,0.0,1.0,93,0.00,,,0.00,,2013-09-07 12:52:00,
2013-09-07 09:12:00,52.0,50.0,30.01,SW,233,0.0,1.0,93,0.00,,,0.00,,2013-09-07 13:12:00,
2013-09-07 09:21:00,54.0,52.0,30.01,SW,230,0.0,4.0,92,0.00,,,0.00,,2013-09-07 13:21:00,
2013-09-07 09:42:00,54.0,52.0,30.01,SW,230,0.0,4.0,92,0.00,,,0.00,,2013-09-07 13:42:00,
2013-09-07 09:52:00,54.0,52.0,30.01,SW,230,0.0,4.0,92,0.00,,,0.00,,2013-09-07 13:52:00,
2013-09-07 10:11:00,63.0,55.0,30.01,West,264,1.0,6.0,74,0.00,,,0.00,,2013-09-07 14:11:00,
2013-09-07 10:22:00,65.0,53.0,30.01,WNW,292,1.0,5.0,66,0.00,,,0.00,,2013-09-07 14:22:00,
2013-09-07 10:52:00,68.0,55.0,30.01,South,191,0.0,3.0,63,0.00,,,0.00,,2013-09-07 14:52:00,
2013-09-07 11:11:00,72.0,58.0,29.99,SW,232,1.0,9.0,62,0.00,,,0.00,,2013-09-07 15:11:00,
2013-09-07 11:23:00,72.0,58.0,29.99,SW,232,1.0,9.0,62,0.00,,,0.00,,2013-09-07 15:23:00,
2013-09-07 11:34:00,72.0,58.0,29.99,SW,232,1.0,9.0,62,0.00,,,0.00,,2013-09-07 15:34:00,
2013-09-07 11:44:00,72.0,58.0,29.99,SW,232,1.0,9.0,62,0.00,,,0.00,,2013-09-07 15:44:00,
2013-09-07 11:54:00,73.0,51.0,29.97,SSW,212,1.0,7.0,46,0.00,,,0.00,,2013-09-07 15:54:00,
2013-09-07 12:04:00,73.0,51.0,29.97,SSW,212,1.0,7.0,46,0.00,,,0.00,,2013-09-07 16:04:00,
2013-09-07 12:24:00,76.0,58.0,29.96,WNW,287,1.0,7.0,53,0.00,,,0.00,,2013-09-07 16:24:00,
2013-09-07 12:43:00,76.0,55.0,29.96,WNW,293,1.0,5.0,48,0.00,,,0.00,,2013-09-07 16:43:00,
2013-09-07 12:50:00,79.0,59.0,29.94,West,260,1.0,6.0,50,0.00,,,0.00,,2013-09-07 16:50:00,
2013-09-07 12:53:00,78.0,57.0,29.95,WNW,286,1.0,6.0,48,0.00,,,0.00,,2013-09-07 16:53:00,
2013-09-07 13:12:00,79.0,59.0,29.94,West,260,1.0,6.0,50,0.00,,,0.00,,2013-09-07 17:12:00,
2013-09-07 13:24:00,79.0,59.0,29.94,West,260,1.0,6.0,50,0.00,,,0.00,,2013-09-07 17:24:00,
2013-09-07 13:34:00,79.0,59.0,29.94,West,260,1.0,6.0,50,0.00,,,0.00,,2013-09-07 17:34:00,
2013-09-07 14:43:00,82.0,56.0,29.89,WSW,251,1.0,7.0,41,0.00,,,0.00,,2013-09-07 18:43:00,
2013-09-07 14:52:00,82.0,57.0,29.90,WSW,243,2.0,7.0,42,0.00,,,0.00,,2013-09-07 18:52:00,
2013-09-07 15:10:00,78.0,59.0,29.88,WSW,246,1.0,6.0,53,0.00,,,0.00,,2013-09-07 19:10:00,
2013-09-07 15:11:00,80.0,59.0,29.89,West,273,3.0,10.0,49,0.00,,,0.00,,2013-09-07 19:11:00,
2013-09-07 15:22:00,80.0,59.0,29.89,West,273,3.0,10.0,49,0.00,,,0.00,,2013-09-07 19:22:00,
2013-09-07 15:52:00,78.0,59.0,29.88,WSW,246,1.0,6.0,53,0.00,,,0.00,,2013-09-07 19:52:00,
2013-09-07 16:02:00,78.0,59.0,29.88,WSW,246,1.0,6.0,53,0.00,,,0.00,,2013-09-07 20:02:00,
2013-09-07 16:22:00,75.0,60.0,29.87,WNW,296,1.0,4.0,60,0.00,,,0.00,,2013-09-07 20:22:00,
2013-09-07 16:42:00,75.0,60.0,29.87,West,269,1.0,5.0,60,0.00,,,0.00,,2013-09-07 20:42:00,
2013-09-07 16:53:00,75.0,60.0,29.87,West,269,1.0,5.0,60,0.00,,,0.00,,2013-09-07 20:53:00,
2013-09-07 17:12:00,75.0,60.0,29.87,West,269,1.0,5.0,60,0.00,,,0.00,,2013-09-07 21:12:00,
2013-09-07 17:22:00,75.0,60.0,29.87,West,269,1.0,5.0,60,0.00,,,0.00,,2013-09-07 21:22:00,
2013-09-07 17:34:00,75.0,60.0,29.87,West,269,1.0,5.0,60,0.00,,,0.00,,2013-09-07 21:34:00,
2013-09-07 17:54:00,75.0,60.0,29.87,West,269,1.0,5.0,60,0.00,,,0.00,,2013-09-07 21:54:00,
2013-09-07 18:13:00,75.0,60.0,29.87,West,269,1.0,5.0,60,0.00,,,0.00,,2013-09-07 22:13:00,
2013-09-07 18:24:00,75.0,60.0,29.87,West,269,1.0,5.0,60,0.00,,,0.00,,2013-09-07 22:24:00,
2013-09-07 18:43:00,75.0,60.0,29.87,West,269,1.0,5.0,60,0.00,,,0.00,,2013-09-07 22:43:00,
2013-09-07 18:53:00,75.0,60.0,29.87,West,269,1.0,5.0,60,0.00,,,0.00,,2013-09-07 22:53:00,
2013-09-07 19:12:00,75.0,60.0,29.87,West,269,1.0,5.0,60,0.00,,,0.00,,2013-09-07 23:12:00,
2013-09-07 19:23:00,75.0,60.0,29.87,West,269,1.0,5.0,60,0.00,,,0.00,,2013-09-07 23:23:00,
2013-09-07 19:42:00,75.0,60.0,29.87,West,269,1.0,5.0,60,0.00,,,0.00,,2013-09-07 23:42:00,
2013-09-07 19:52:00,75.0,60.0,29.87,West,269,1.0,5.0,60,0.00,,,0.00,,2013-09-07 23:52:00,
2013-09-07 20:11:00,75.0,60.0,29.87,West,269,1.0,5.0,60,0.00,,,0.00,,2013-09-08 00:11:00,